createdAt,value
2018-08-31T00:00:16.874Z,88.30
2018-08-31T00:01:13.800Z,88.30
2018-08-31T00:02:57.132Z,88.60
2018-08-31T00:04:55.820Z,89.10
2018-08-31T00:05:55.784Z,88.60
2018-08-31T00:07:56.078Z,88.20
2018-08-31T00:11:05.464Z,88.30
2018-08-31T00:13:06.069Z,88.40
2018-08-31T00:13:39.578Z,89.60
2018-08-31T00:14:13.094Z,90.80
2018-08-31T00:14:46.652Z,90.70
2018-08-31T00:15:20.248Z,90.50
2018-08-31T00:15:53.790Z,90.30
2018-08-31T00:16:27.328Z,90.20
2018-08-31T00:17:01.033Z,90.10
2018-08-31T00:17:35.204Z,90.10
2018-08-31T00:18:08.780Z,90.30
2018-08-31T00:18:42.327Z,90.80
2018-08-31T00:19:16.162Z,91.10
2018-08-31T00:19:49.696Z,91.60
2018-08-31T00:20:23.304Z,91.60
2018-08-31T00:20:56.829Z,91.60
2018-08-31T00:21:30.354Z,91.70
2018-08-31T00:22:03.901Z,91.80
2018-08-31T00:22:37.596Z,91.70
2018-08-31T00:23:11.138Z,91.80
2018-08-31T00:24:07.964Z,92.00
2018-08-31T00:26:12.692Z,92.20
2018-08-31T00:27:09.804Z,92.30
2018-08-31T00:28:06.664Z,92.90
2018-08-31T00:29:51.678Z,93.30
2018-08-31T00:31:48.460Z,93.90
2018-08-31T00:35:02.177Z,95.00
2018-08-31T00:37:05.112Z,96.10
2018-08-31T00:42:17.035Z,98.10
2018-08-31T00:43:06.532Z,98.20
2018-08-31T00:45:49.356Z,99.90
2018-08-31T00:46:23.204Z,99.90
2018-08-31T00:46:56.748Z,99.90
2018-08-31T00:47:30.331Z,99.90
2018-08-31T00:48:04.286Z,99.90
2018-08-31T00:48:37.782Z,99.90
2018-08-31T00:49:11.345Z,99.90
2018-08-31T00:49:45.046Z,99.90
2018-08-31T00:50:18.595Z,99.90
2018-08-31T00:50:52.237Z,99.90
2018-08-31T00:51:25.803Z,99.90
2018-08-31T00:51:59.338Z,99.90
2018-08-31T00:52:32.947Z,99.90
2018-08-31T00:53:06.894Z,99.90
2018-08-31T00:53:40.443Z,99.90
2018-08-31T00:54:13.986Z,99.90
2018-08-31T00:54:47.564Z,99.90
2018-08-31T00:55:21.138Z,99.90
2018-08-31T00:55:54.691Z,99.90
2018-08-31T00:56:28.221Z,99.90
2018-08-31T00:57:01.764Z,99.90
2018-08-31T00:57:35.320Z,99.90
2018-08-31T00:58:08.880Z,99.90
2018-08-31T00:58:42.447Z,99.90
2018-08-31T00:59:16.000Z,99.90
2018-08-31T00:59:49.580Z,99.90
2018-08-31T01:00:23.190Z,99.90
2018-08-31T01:00:56.774Z,99.90
2018-08-31T01:01:30.306Z,99.90
2018-08-31T01:02:04.004Z,99.90
2018-08-31T01:02:37.540Z,99.90
2018-08-31T01:03:11.050Z,99.90
2018-08-31T01:03:44.588Z,99.90
2018-08-31T01:04:18.112Z,99.90
2018-08-31T01:04:51.652Z,99.90
2018-08-31T01:05:25.244Z,99.90
2018-08-31T01:05:58.889Z,99.90
2018-08-31T01:06:32.446Z,99.90
2018-08-31T01:07:06.168Z,99.90
2018-08-31T01:07:39.786Z,99.90
2018-08-31T01:08:13.323Z,99.90
2018-08-31T01:08:46.856Z,99.90
2018-08-31T01:09:20.398Z,99.90
2018-08-31T01:09:53.964Z,99.90
2018-08-31T01:10:27.520Z,99.90
2018-08-31T01:11:01.112Z,99.90
2018-08-31T01:11:34.696Z,99.90
2018-08-31T01:12:08.626Z,99.90
2018-08-31T01:12:42.216Z,99.90
2018-08-31T01:13:15.744Z,99.90
2018-08-31T01:13:49.346Z,99.90
2018-08-31T01:14:22.872Z,99.90
2018-08-31T01:14:56.463Z,99.90
2018-08-31T01:15:30.022Z,99.90
2018-08-31T01:16:03.650Z,99.90
2018-08-31T01:16:37.290Z,99.90
2018-08-31T01:17:10.833Z,99.90
2018-08-31T01:17:44.422Z,99.90
2018-08-31T01:18:17.992Z,99.90
2018-08-31T01:18:51.532Z,99.90
2018-08-31T01:19:25.124Z,99.90
2018-08-31T01:19:58.807Z,99.90
2018-08-31T01:20:32.377Z,99.90
2018-08-31T01:21:06.219Z,99.90
2018-08-31T01:21:39.758Z,99.90
2018-08-31T01:22:13.306Z,99.90
2018-08-31T01:22:46.850Z,99.90
2018-08-31T01:23:20.431Z,99.90
2018-08-31T01:23:53.971Z,99.90
2018-08-31T01:24:27.536Z,99.90
2018-08-31T01:25:01.102Z,99.90
2018-08-31T01:25:34.847Z,99.90
2018-08-31T01:26:08.404Z,99.90
2018-08-31T01:26:41.934Z,99.90
2018-08-31T01:27:15.490Z,99.90
2018-08-31T01:27:49.072Z,99.90
2018-08-31T01:28:22.613Z,99.90
2018-08-31T01:28:56.158Z,99.90
2018-08-31T01:29:29.702Z,99.90
2018-08-31T01:30:03.742Z,99.90
2018-08-31T01:30:37.298Z,99.90
2018-08-31T01:31:10.828Z,99.90
2018-08-31T01:31:44.368Z,99.90
2018-08-31T01:32:17.932Z,99.90
2018-08-31T01:32:51.450Z,99.90
2018-08-31T01:33:24.982Z,99.90
2018-08-31T01:33:58.552Z,99.90
2018-08-31T01:34:32.172Z,99.90
2018-08-31T01:35:05.834Z,99.90
2018-08-31T01:35:39.382Z,99.90
2018-08-31T01:36:12.932Z,99.90
2018-08-31T01:36:46.455Z,99.90
2018-08-31T01:37:19.984Z,99.90
2018-08-31T01:37:53.536Z,99.90
2018-08-31T01:38:27.083Z,99.90
2018-08-31T01:39:00.644Z,99.90
2018-08-31T01:39:34.468Z,99.90
2018-08-31T01:40:08.136Z,99.90
2018-08-31T01:40:41.883Z,99.90
2018-08-31T01:41:15.384Z,99.90
2018-08-31T01:41:48.962Z,99.90
2018-08-31T01:42:22.512Z,99.90
2018-08-31T01:42:56.082Z,99.90
2018-08-31T01:43:29.639Z,99.90
2018-08-31T01:44:03.183Z,99.90
2018-08-31T01:44:36.788Z,99.90
2018-08-31T01:45:10.382Z,99.90
2018-08-31T01:45:43.896Z,99.90
2018-08-31T01:46:17.442Z,99.90
2018-08-31T01:46:51.000Z,99.90
2018-08-31T01:47:24.541Z,99.90
2018-08-31T01:47:58.103Z,99.90
2018-08-31T01:48:31.673Z,99.90
2018-08-31T01:49:05.262Z,99.90
2018-08-31T01:49:38.806Z,99.90
2018-08-31T01:50:12.703Z,99.90
2018-08-31T01:50:51.914Z,99.90
2018-08-31T01:51:25.487Z,99.90
2018-08-31T01:51:59.034Z,99.90
2018-08-31T01:52:32.651Z,99.90
2018-08-31T01:53:06.161Z,99.90
2018-08-31T01:53:39.697Z,99.90
2018-08-31T01:54:13.240Z,99.90
2018-08-31T01:54:46.763Z,99.90
2018-08-31T01:55:25.871Z,99.90
2018-08-31T01:55:59.442Z,99.90
2018-08-31T01:56:33.124Z,99.90
2018-08-31T01:57:06.676Z,99.90
2018-08-31T01:57:40.198Z,99.90
2018-08-31T01:58:13.746Z,99.90
2018-08-31T01:58:47.294Z,99.90
2018-08-31T01:59:20.820Z,99.90
2018-08-31T01:59:54.351Z,99.90
2018-08-31T02:00:28.153Z,99.90
2018-08-31T02:01:01.716Z,99.90
2018-08-31T02:01:35.333Z,99.90
2018-08-31T02:02:08.892Z,99.90
2018-08-31T02:02:42.445Z,99.90
2018-08-31T02:03:15.958Z,99.90
2018-08-31T02:03:49.662Z,99.90
2018-08-31T02:04:23.194Z,99.90
2018-08-31T02:04:56.807Z,99.90
2018-08-31T02:05:30.374Z,99.90
2018-08-31T02:06:04.305Z,99.90
2018-08-31T02:06:37.840Z,99.90
2018-08-31T02:07:13.695Z,99.90
2018-08-31T02:07:47.251Z,99.90
2018-08-31T02:08:20.785Z,99.90
2018-08-31T02:09:00.016Z,99.90
2018-08-31T02:09:33.594Z,99.90
2018-08-31T02:10:07.151Z,99.90
2018-08-31T02:10:40.702Z,99.90
2018-08-31T02:11:14.360Z,99.90
2018-08-31T02:11:49.099Z,99.90
2018-08-31T02:12:22.686Z,99.90
2018-08-31T02:12:56.250Z,99.90
2018-08-31T02:13:29.836Z,99.90
2018-08-31T02:14:03.691Z,99.90
2018-08-31T02:14:37.216Z,99.90
2018-08-31T02:15:10.782Z,99.90
2018-08-31T02:15:44.402Z,99.90
2018-08-31T02:16:18.004Z,99.90
2018-08-31T02:16:51.561Z,99.90
2018-08-31T02:17:25.094Z,99.90
2018-08-31T02:17:58.645Z,99.90
2018-08-31T02:18:32.210Z,99.90
2018-08-31T02:19:05.753Z,99.90
2018-08-31T02:19:39.319Z,99.90
2018-08-31T02:20:12.916Z,99.90
2018-08-31T02:20:46.427Z,99.90
2018-08-31T02:21:19.990Z,99.90
2018-08-31T02:21:53.508Z,99.90
2018-08-31T02:22:27.160Z,99.90
2018-08-31T02:23:00.695Z,99.90
2018-08-31T02:23:34.296Z,99.90
2018-08-31T02:24:07.912Z,99.90
2018-08-31T02:24:41.458Z,99.90
2018-08-31T02:25:15.046Z,99.90
2018-08-31T02:25:48.618Z,99.90
2018-08-31T02:26:22.162Z,99.90
2018-08-31T02:26:55.661Z,99.90
2018-08-31T02:27:29.224Z,99.90
2018-08-31T02:28:02.774Z,99.90
2018-08-31T02:28:36.278Z,99.90
2018-08-31T02:29:09.804Z,99.90
2018-08-31T02:29:43.346Z,99.90
2018-08-31T02:30:16.911Z,99.90
2018-08-31T02:30:50.443Z,99.90
2018-08-31T02:31:24.046Z,99.90
2018-08-31T02:31:57.599Z,99.90
2018-08-31T02:32:31.128Z,99.90
2018-08-31T02:33:05.066Z,99.90
2018-08-31T02:33:38.565Z,99.90
2018-08-31T02:34:12.096Z,99.90
2018-08-31T02:34:45.652Z,99.90
2018-08-31T02:35:19.200Z,99.90
2018-08-31T02:35:52.725Z,99.90
2018-08-31T02:36:26.326Z,99.90
2018-08-31T02:36:59.878Z,99.90
2018-08-31T02:37:33.385Z,99.90
2018-08-31T02:38:06.902Z,99.90
2018-08-31T02:38:40.522Z,99.90
2018-08-31T02:39:14.103Z,99.90
2018-08-31T02:39:47.587Z,99.90
2018-08-31T02:40:21.120Z,99.90
2018-08-31T02:40:54.650Z,99.90
2018-08-31T02:41:28.201Z,99.90
2018-08-31T02:42:01.768Z,99.90
2018-08-31T02:42:35.447Z,99.90
2018-08-31T02:43:09.008Z,99.90
2018-08-31T02:43:43.534Z,99.90
2018-08-31T02:44:17.138Z,99.90
2018-08-31T02:44:50.698Z,99.90
2018-08-31T02:45:24.374Z,99.90
2018-08-31T02:45:57.905Z,99.90
2018-08-31T02:46:31.481Z,99.90
2018-08-31T02:47:05.050Z,99.90
2018-08-31T02:47:38.607Z,99.90
2018-08-31T02:48:12.138Z,99.90
2018-08-31T02:48:46.077Z,99.90
2018-08-31T02:49:19.627Z,99.90
2018-08-31T02:49:53.172Z,99.90
2018-08-31T02:50:26.733Z,99.90
2018-08-31T02:51:00.418Z,99.90
2018-08-31T02:51:33.957Z,99.90
2018-08-31T02:52:07.488Z,99.90
2018-08-31T02:52:41.014Z,99.90
2018-08-31T02:53:14.668Z,99.90
2018-08-31T02:53:48.240Z,99.90
2018-08-31T02:54:21.780Z,99.90
2018-08-31T02:54:55.305Z,99.90
2018-08-31T02:55:28.858Z,99.90
2018-08-31T02:56:02.392Z,99.90
2018-08-31T02:56:35.919Z,99.90
2018-08-31T02:57:09.416Z,99.90
2018-08-31T02:57:42.997Z,99.90
2018-08-31T02:58:16.551Z,99.90
2018-08-31T02:58:50.111Z,99.90
2018-08-31T02:59:23.640Z,99.90
2018-08-31T02:59:57.192Z,99.90
2018-08-31T03:00:30.745Z,99.90
2018-08-31T03:01:04.336Z,99.90
2018-08-31T03:01:37.944Z,99.90
2018-08-31T03:02:11.464Z,99.90
2018-08-31T03:02:45.004Z,99.90
2018-08-31T03:03:18.530Z,99.90
2018-08-31T03:03:52.074Z,99.90
2018-08-31T03:04:25.624Z,99.90
2018-08-31T03:04:59.162Z,99.90
2018-08-31T03:05:32.688Z,99.90
2018-08-31T03:06:06.301Z,99.90
2018-08-31T03:06:39.866Z,99.90
2018-08-31T03:07:13.596Z,99.90
2018-08-31T03:07:47.152Z,99.90
2018-08-31T03:08:20.769Z,99.90
2018-08-31T03:08:54.348Z,99.90
2018-08-31T03:09:27.905Z,99.90
2018-08-31T03:10:01.426Z,99.90
2018-08-31T03:10:34.929Z,99.90
2018-08-31T03:11:08.523Z,99.90
2018-08-31T03:11:42.108Z,99.90
2018-08-31T03:12:15.608Z,99.90
2018-08-31T03:12:49.176Z,99.90
2018-08-31T03:13:22.746Z,99.90
2018-08-31T03:13:56.314Z,99.90
2018-08-31T03:14:29.858Z,99.90
2018-08-31T03:15:03.424Z,99.90
2018-08-31T03:15:37.002Z,99.90
2018-08-31T03:16:10.532Z,99.90
2018-08-31T03:16:44.064Z,99.90
2018-08-31T03:17:17.639Z,99.90
2018-08-31T03:17:51.196Z,99.90
2018-08-31T03:18:24.792Z,99.90
2018-08-31T03:18:58.358Z,99.90
2018-08-31T03:19:31.880Z,99.90
2018-08-31T03:20:05.490Z,99.90
2018-08-31T03:20:39.036Z,99.90
2018-08-31T03:21:12.635Z,99.90
2018-08-31T03:21:46.153Z,99.90
2018-08-31T03:22:19.697Z,99.90
2018-08-31T03:22:53.252Z,99.90
2018-08-31T03:23:26.796Z,99.90
2018-08-31T03:24:00.333Z,99.90
2018-08-31T03:24:33.935Z,99.90
2018-08-31T03:25:07.523Z,99.90
2018-08-31T03:25:41.040Z,99.90
2018-08-31T03:26:14.587Z,99.90
2018-08-31T03:26:48.140Z,99.90
2018-08-31T03:27:21.686Z,99.90
2018-08-31T03:27:55.564Z,99.90
2018-08-31T03:28:29.117Z,99.90
2018-08-31T03:29:02.655Z,99.90
2018-08-31T03:29:36.219Z,99.90
2018-08-31T03:30:09.791Z,99.90
2018-08-31T03:30:43.319Z,99.90
2018-08-31T03:31:16.867Z,99.90
2018-08-31T03:31:50.383Z,99.90
2018-08-31T03:32:23.948Z,99.90
2018-08-31T03:32:57.484Z,99.90
2018-08-31T03:33:30.995Z,99.90
2018-08-31T03:34:04.686Z,99.90
2018-08-31T03:34:38.190Z,99.90
2018-08-31T03:35:11.748Z,99.90
2018-08-31T03:35:45.340Z,99.90
2018-08-31T03:36:18.882Z,99.90
2018-08-31T03:36:52.437Z,99.90
2018-08-31T03:37:25.995Z,99.90
2018-08-31T03:37:59.560Z,99.90
2018-08-31T03:38:33.092Z,99.90
2018-08-31T03:39:09.379Z,99.90
2018-08-31T03:39:42.911Z,99.90
2018-08-31T03:40:16.479Z,99.90
2018-08-31T03:40:50.027Z,99.90
2018-08-31T03:41:23.531Z,99.90
2018-08-31T03:41:57.059Z,99.90
2018-08-31T03:42:30.613Z,99.90
2018-08-31T03:43:04.429Z,99.90
2018-08-31T03:43:37.995Z,99.90
2018-08-31T03:44:11.609Z,99.90
2018-08-31T03:44:45.168Z,99.90
2018-08-31T03:45:18.692Z,99.90
2018-08-31T03:45:52.250Z,99.90
2018-08-31T03:46:25.771Z,99.90
2018-08-31T03:46:59.299Z,99.90
2018-08-31T03:47:32.825Z,99.90
2018-08-31T03:48:06.399Z,99.90
2018-08-31T03:48:39.928Z,99.90
2018-08-31T03:49:13.454Z,99.90
2018-08-31T03:49:46.995Z,99.90
2018-08-31T03:50:20.583Z,99.90
2018-08-31T03:50:54.112Z,99.90
2018-08-31T03:51:27.833Z,99.90
2018-08-31T03:52:01.407Z,99.90
2018-08-31T03:52:34.957Z,99.90
2018-08-31T03:53:08.469Z,99.90
2018-08-31T03:53:42.018Z,99.90
2018-08-31T03:54:15.600Z,99.90
2018-08-31T03:54:49.351Z,99.90
2018-08-31T03:55:22.939Z,99.90
2018-08-31T03:55:56.463Z,99.90
2018-08-31T03:56:30.080Z,99.90
2018-08-31T03:57:03.713Z,99.90
2018-08-31T03:57:37.380Z,99.90
2018-08-31T03:58:10.985Z,99.90
2018-08-31T03:58:44.497Z,99.90
2018-08-31T03:59:18.073Z,99.90
2018-08-31T03:59:51.818Z,99.90
2018-08-31T04:00:25.368Z,99.90
2018-08-31T04:00:58.858Z,99.90
2018-08-31T04:01:32.421Z,99.90
2018-08-31T04:02:06.023Z,99.90
2018-08-31T04:02:39.539Z,99.90
2018-08-31T04:03:13.083Z,99.90
2018-08-31T04:03:46.669Z,99.90
2018-08-31T04:04:20.241Z,99.90
2018-08-31T04:04:53.775Z,99.90
2018-08-31T04:05:27.334Z,99.90
2018-08-31T04:06:00.903Z,99.90
2018-08-31T04:06:34.428Z,99.90
2018-08-31T04:07:07.974Z,99.90
2018-08-31T04:07:41.543Z,99.90
2018-08-31T04:08:15.211Z,99.90
2018-08-31T04:08:48.767Z,99.90
2018-08-31T04:09:22.283Z,99.90
2018-08-31T04:09:55.826Z,99.90
2018-08-31T04:10:29.355Z,99.90
2018-08-31T04:11:02.875Z,99.90
2018-08-31T04:11:36.425Z,99.90
2018-08-31T04:12:09.961Z,99.90
2018-08-31T04:12:43.479Z,99.90
2018-08-31T04:13:17.016Z,99.90
2018-08-31T04:13:50.519Z,99.90
2018-08-31T04:14:24.041Z,99.90
2018-08-31T04:14:57.753Z,99.90
2018-08-31T04:15:31.262Z,99.90
2018-08-31T04:16:04.820Z,99.90
2018-08-31T04:16:38.349Z,99.90
2018-08-31T04:17:11.917Z,99.90
2018-08-31T04:17:45.481Z,99.90
2018-08-31T04:18:19.057Z,99.90
2018-08-31T04:18:52.633Z,99.90
2018-08-31T04:19:26.159Z,99.90
2018-08-31T04:19:59.685Z,99.90
2018-08-31T04:20:33.247Z,99.90
2018-08-31T04:21:06.809Z,99.90
2018-08-31T04:21:40.344Z,99.90
2018-08-31T04:22:13.877Z,99.90
2018-08-31T04:22:47.457Z,99.90
2018-08-31T04:23:21.005Z,99.90
2018-08-31T04:23:54.522Z,99.90
2018-08-31T04:24:28.056Z,99.90
2018-08-31T04:25:01.606Z,99.90
2018-08-31T04:25:35.119Z,99.90
2018-08-31T04:26:08.703Z,99.90
2018-08-31T04:26:42.284Z,99.90
2018-08-31T04:27:15.827Z,99.90
2018-08-31T04:27:49.367Z,99.90
2018-08-31T04:28:22.909Z,99.90
2018-08-31T04:28:56.413Z,99.90
2018-08-31T04:29:29.943Z,99.90
2018-08-31T04:30:04.120Z,99.90
2018-08-31T04:30:37.620Z,99.90
2018-08-31T04:31:11.171Z,99.90
2018-08-31T04:31:44.718Z,99.90
2018-08-31T04:32:18.280Z,99.90
2018-08-31T04:32:51.907Z,99.90
2018-08-31T04:33:25.496Z,99.90
2018-08-31T04:33:59.113Z,99.90
2018-08-31T04:34:32.673Z,99.90
2018-08-31T04:35:06.590Z,99.90
2018-08-31T04:35:40.129Z,99.90
2018-08-31T04:36:13.689Z,99.90
2018-08-31T04:36:47.298Z,99.90
2018-08-31T04:37:20.869Z,99.90
2018-08-31T04:37:54.398Z,99.90
2018-08-31T04:38:28.008Z,99.90
2018-08-31T04:39:01.530Z,99.90
2018-08-31T04:39:35.112Z,99.90
2018-08-31T04:40:08.721Z,99.90
2018-08-31T04:40:42.320Z,99.90
2018-08-31T04:41:15.895Z,99.70
2018-08-31T04:41:49.425Z,99.40
2018-08-31T04:42:23.010Z,99.60
2018-08-31T04:42:56.675Z,99.70
2018-08-31T04:43:30.088Z,99.30
2018-08-31T04:44:03.644Z,99.30
2018-08-31T04:44:37.213Z,99.10
2018-08-31T04:45:10.732Z,99.10
2018-08-31T04:45:44.246Z,99.00
2018-08-31T04:46:17.760Z,98.80
2018-08-31T04:46:51.368Z,98.70
2018-08-31T04:47:24.948Z,98.40
2018-08-31T04:47:58.492Z,98.20
2018-08-31T04:48:32.032Z,98.00
2018-08-31T04:49:05.781Z,97.70
2018-08-31T04:49:39.276Z,97.50
2018-08-31T04:50:12.915Z,97.20
2018-08-31T04:50:46.434Z,97.30
2018-08-31T04:51:19.992Z,97.30
2018-08-31T04:51:53.544Z,97.50
2018-08-31T04:52:27.088Z,97.70
2018-08-31T04:53:00.627Z,98.00
2018-08-31T04:53:34.194Z,98.00
2018-08-31T04:54:07.738Z,98.10
2018-08-31T04:54:41.252Z,97.90
2018-08-31T04:55:14.795Z,98.10
2018-08-31T04:55:48.332Z,98.30
2018-08-31T04:56:21.893Z,98.60
2018-08-31T04:56:55.431Z,98.80
2018-08-31T04:57:28.970Z,99.10
2018-08-31T04:58:02.529Z,99.30
2018-08-31T04:58:36.039Z,99.40
2018-08-31T04:59:09.589Z,99.70
2018-08-31T04:59:43.130Z,99.70
2018-08-31T05:00:16.672Z,99.80
2018-08-31T05:00:50.185Z,99.10
2018-08-31T05:01:23.862Z,98.60
2018-08-31T05:01:57.413Z,98.10
2018-08-31T05:02:30.947Z,97.70
2018-08-31T05:03:04.715Z,97.30
2018-08-31T05:03:38.304Z,96.90
2018-08-31T05:04:11.954Z,96.30
2018-08-31T05:04:45.491Z,96.50
2018-08-31T05:05:19.063Z,96.40
2018-08-31T05:05:52.613Z,96.00
2018-08-31T05:06:26.123Z,95.90
2018-08-31T05:06:59.695Z,96.10
2018-08-31T05:07:33.251Z,96.00
2018-08-31T05:08:06.831Z,96.10
2018-08-31T05:08:40.364Z,96.50
2018-08-31T05:09:13.888Z,96.60
2018-08-31T05:09:47.441Z,96.00
2018-08-31T05:10:21.067Z,95.50
2018-08-31T05:10:54.673Z,94.70
2018-08-31T05:11:28.207Z,93.90
2018-08-31T05:12:01.817Z,93.40
2018-08-31T05:12:35.401Z,93.50
2018-08-31T05:13:08.964Z,93.50
2018-08-31T05:13:42.542Z,93.60
2018-08-31T05:14:16.070Z,93.70
2018-08-31T05:14:49.602Z,94.00
2018-08-31T05:15:23.151Z,94.20
2018-08-31T05:15:56.956Z,94.50
2018-08-31T05:16:30.471Z,94.80
2018-08-31T05:17:04.090Z,94.50
2018-08-31T05:17:37.602Z,94.00
2018-08-31T05:18:11.255Z,93.50
2018-08-31T05:18:44.828Z,93.40
2018-08-31T05:19:18.347Z,93.30
2018-08-31T05:19:51.867Z,93.20
2018-08-31T05:20:25.403Z,93.20
2018-08-31T05:20:58.943Z,93.30
2018-08-31T05:21:32.475Z,93.30
2018-08-31T05:22:06.194Z,93.20
2018-08-31T05:22:39.668Z,93.00
2018-08-31T05:23:13.171Z,92.80
2018-08-31T05:23:46.769Z,92.80
2018-08-31T05:24:20.332Z,92.70
2018-08-31T05:24:53.885Z,92.60
2018-08-31T05:25:27.471Z,92.20
2018-08-31T05:26:01.126Z,91.90
2018-08-31T05:26:34.633Z,91.90
2018-08-31T05:27:08.135Z,91.60
2018-08-31T05:27:41.680Z,91.00
2018-08-31T05:28:15.233Z,90.50
2018-08-31T05:28:48.786Z,90.30
2018-08-31T05:29:22.365Z,90.20
2018-08-31T05:29:55.937Z,89.90
2018-08-31T05:30:29.477Z,89.90
2018-08-31T05:31:03.069Z,89.50
2018-08-31T05:31:36.605Z,89.50
2018-08-31T05:32:10.150Z,89.80
2018-08-31T05:32:43.689Z,90.10
2018-08-31T05:33:17.275Z,90.60
2018-08-31T05:33:50.923Z,90.90
2018-08-31T05:34:24.508Z,91.30
2018-08-31T05:34:58.056Z,91.60
2018-08-31T05:35:31.598Z,92.10
2018-08-31T05:36:05.219Z,92.40
2018-08-31T05:36:38.847Z,92.90
2018-08-31T05:37:12.405Z,93.40
2018-08-31T05:37:45.916Z,93.80
2018-08-31T05:38:19.477Z,94.20
2018-08-31T05:38:53.059Z,94.50
2018-08-31T05:39:26.600Z,94.80
2018-08-31T05:40:00.162Z,95.10
2018-08-31T05:40:33.671Z,95.60
2018-08-31T05:41:07.215Z,95.80
2018-08-31T05:41:41.342Z,95.70
2018-08-31T05:42:14.887Z,94.90
2018-08-31T05:42:48.395Z,94.20
2018-08-31T05:43:22.002Z,93.30
2018-08-31T05:43:55.560Z,92.60
2018-08-31T05:44:29.093Z,92.00
2018-08-31T05:45:02.659Z,91.60
2018-08-31T05:45:36.285Z,91.00
2018-08-31T05:46:09.822Z,90.50
2018-08-31T05:46:43.355Z,90.60
2018-08-31T05:47:16.915Z,90.50
2018-08-31T05:47:50.469Z,90.30
2018-08-31T05:48:24.053Z,89.90
2018-08-31T05:48:57.603Z,89.20
2018-08-31T05:49:31.128Z,88.90
2018-08-31T05:50:04.941Z,89.10
2018-08-31T05:50:38.499Z,89.30
2018-08-31T05:51:12.021Z,89.70
2018-08-31T05:51:45.573Z,90.20
2018-08-31T05:52:19.098Z,90.80
2018-08-31T05:52:52.619Z,91.30
2018-08-31T05:53:26.131Z,91.90
2018-08-31T05:53:59.668Z,92.50
2018-08-31T05:54:33.224Z,93.40
2018-08-31T05:55:06.836Z,93.90
2018-08-31T05:55:40.353Z,94.40
2018-08-31T05:56:13.886Z,94.70
2018-08-31T05:56:47.467Z,94.60
2018-08-31T05:57:21.023Z,94.50
2018-08-31T05:57:54.523Z,94.50
2018-08-31T05:58:28.048Z,93.50
2018-08-31T05:59:01.604Z,93.90
2018-08-31T05:59:35.193Z,94.40
2018-08-31T06:00:08.876Z,94.60
2018-08-31T06:00:42.415Z,94.10
2018-08-31T06:01:15.960Z,94.00
2018-08-31T06:01:49.510Z,93.90
2018-08-31T06:02:23.080Z,94.00
2018-08-31T06:02:56.739Z,94.10
2018-08-31T06:03:30.277Z,94.30
2018-08-31T06:04:03.835Z,94.60
2018-08-31T06:04:37.380Z,95.20
2018-08-31T06:05:10.970Z,95.60
2018-08-31T06:05:44.525Z,95.20
2018-08-31T06:06:18.091Z,94.80
2018-08-31T06:06:51.595Z,94.80
2018-08-31T06:07:25.137Z,94.90
2018-08-31T06:07:58.672Z,95.20
2018-08-31T06:08:32.191Z,95.50
2018-08-31T06:09:08.456Z,95.70
2018-08-31T06:09:41.985Z,95.60
2018-08-31T06:10:15.546Z,95.30
2018-08-31T06:10:49.102Z,95.30
2018-08-31T06:11:22.659Z,95.20
2018-08-31T06:11:56.273Z,95.20
2018-08-31T06:12:29.875Z,95.50
2018-08-31T06:13:03.511Z,95.60
2018-08-31T06:13:37.071Z,95.70
2018-08-31T06:14:10.831Z,95.90
2018-08-31T06:14:44.405Z,95.80
2018-08-31T06:15:18.154Z,95.50
2018-08-31T06:15:51.691Z,95.10
2018-08-31T06:16:25.221Z,95.00
2018-08-31T06:16:58.783Z,95.00
2018-08-31T06:17:32.349Z,95.30
2018-08-31T06:18:06.055Z,95.90
2018-08-31T06:18:39.615Z,96.30
2018-08-31T06:19:13.225Z,96.40
2018-08-31T06:19:46.763Z,96.30
2018-08-31T06:20:20.315Z,96.40
2018-08-31T06:20:53.896Z,94.90
2018-08-31T06:21:27.473Z,94.20
2018-08-31T06:22:01.027Z,94.00
2018-08-31T06:22:34.525Z,93.80
2018-08-31T06:23:08.109Z,93.80
2018-08-31T06:23:41.655Z,93.90
2018-08-31T06:24:15.197Z,94.00
2018-08-31T06:24:48.926Z,94.20
2018-08-31T06:25:22.493Z,94.00
2018-08-31T06:25:56.035Z,93.40
2018-08-31T06:26:29.595Z,93.40
2018-08-31T06:27:03.163Z,93.20
2018-08-31T06:27:36.697Z,92.80
2018-08-31T06:28:10.260Z,92.20
2018-08-31T06:28:43.763Z,91.70
2018-08-31T06:29:17.347Z,91.50
2018-08-31T06:29:51.301Z,91.30
2018-08-31T06:30:24.859Z,90.90
2018-08-31T06:30:58.411Z,90.50
2018-08-31T06:31:32.008Z,89.90
2018-08-31T06:32:05.621Z,89.00
2018-08-31T06:32:39.223Z,88.50
2018-08-31T06:33:12.909Z,87.60
2018-08-31T06:33:46.440Z,86.80
2018-08-31T06:34:20.003Z,85.20
2018-08-31T06:34:53.590Z,82.30
2018-08-31T06:35:27.170Z,78.20
2018-08-31T06:36:00.746Z,76.30
2018-08-31T06:36:34.305Z,76.00
2018-08-31T06:37:08.035Z,76.10
2018-08-31T06:37:41.595Z,75.90
2018-08-31T06:38:15.413Z,75.00
2018-08-31T06:38:48.943Z,74.70
2018-08-31T06:39:22.543Z,75.00
2018-08-31T06:39:56.105Z,75.20
2018-08-31T06:40:29.667Z,75.50
2018-08-31T06:41:03.209Z,75.70
2018-08-31T06:41:36.761Z,75.90
2018-08-31T06:42:10.314Z,75.60
2018-08-31T06:42:43.857Z,75.20
2018-08-31T06:43:17.395Z,74.80
2018-08-31T06:43:50.889Z,73.30
2018-08-31T06:44:24.403Z,71.70
2018-08-31T06:44:57.931Z,71.50
2018-08-31T06:45:31.655Z,72.40
2018-08-31T06:46:05.369Z,72.70
2018-08-31T06:46:38.933Z,73.00
2018-08-31T06:47:12.613Z,73.80
2018-08-31T06:47:46.163Z,74.80
2018-08-31T06:48:19.713Z,75.70
2018-08-31T06:48:53.256Z,76.60
2018-08-31T06:49:26.974Z,76.60
2018-08-31T06:50:00.516Z,76.80
2018-08-31T06:50:34.104Z,76.90
2018-08-31T06:51:07.650Z,76.80
2018-08-31T06:51:41.163Z,76.80
2018-08-31T06:52:14.690Z,77.00
2018-08-31T06:52:48.233Z,77.60
2018-08-31T06:53:21.787Z,78.00
2018-08-31T06:53:55.328Z,78.00
2018-08-31T06:54:28.887Z,77.90
2018-08-31T06:55:02.434Z,78.00
2018-08-31T06:55:35.977Z,77.70
2018-08-31T06:56:09.519Z,76.90
2018-08-31T06:56:43.062Z,75.10
2018-08-31T06:57:16.602Z,74.80
2018-08-31T06:57:50.164Z,75.30
2018-08-31T06:58:23.695Z,75.60
2018-08-31T06:58:57.314Z,75.00
2018-08-31T06:59:30.823Z,75.00
2018-08-31T07:00:05.067Z,74.70
2018-08-31T07:00:38.641Z,75.00
2018-08-31T07:01:12.236Z,75.10
2018-08-31T07:01:45.897Z,75.00
2018-08-31T07:02:19.475Z,74.90
2018-08-31T07:02:53.052Z,75.00
2018-08-31T07:03:26.545Z,74.70
2018-08-31T07:04:00.073Z,74.40
2018-08-31T07:04:33.678Z,74.50
2018-08-31T07:05:07.884Z,74.90
2018-08-31T07:05:41.410Z,74.50
2018-08-31T07:06:14.971Z,73.00
2018-08-31T07:06:48.587Z,70.90
2018-08-31T07:07:22.147Z,69.90
2018-08-31T07:07:55.696Z,68.80
2018-08-31T07:08:29.358Z,67.00
2018-08-31T07:09:03.675Z,65.60
2018-08-31T07:09:37.265Z,64.80
2018-08-31T07:10:11.064Z,64.50
2018-08-31T07:10:44.583Z,64.60
2018-08-31T07:11:18.547Z,65.40
2018-08-31T07:11:52.087Z,65.20
2018-08-31T07:12:25.752Z,64.60
2018-08-31T07:12:59.219Z,64.00
2018-08-31T07:13:32.729Z,63.30
2018-08-31T07:14:07.272Z,63.20
2018-08-31T07:14:40.829Z,63.90
2018-08-31T07:15:14.363Z,64.80
2018-08-31T07:15:47.888Z,64.60
2018-08-31T07:16:21.429Z,61.80
2018-08-31T07:16:54.998Z,62.00
2018-08-31T07:17:28.550Z,61.50
2018-08-31T07:18:02.079Z,59.60
2018-08-31T07:18:35.641Z,59.40
2018-08-31T07:19:09.223Z,59.00
2018-08-31T07:19:42.757Z,59.00
2018-08-31T07:20:16.287Z,57.70
2018-08-31T07:20:49.854Z,56.70
2018-08-31T07:21:23.446Z,55.70
2018-08-31T07:21:56.983Z,55.50
2018-08-31T07:22:30.529Z,55.80
2018-08-31T07:23:04.642Z,56.40
2018-08-31T07:23:38.141Z,56.80
2018-08-31T07:24:11.703Z,56.60
2018-08-31T07:24:45.237Z,55.10
2018-08-31T07:25:18.752Z,54.90
2018-08-31T07:25:52.389Z,54.90
2018-08-31T07:26:26.409Z,55.20
2018-08-31T07:26:59.983Z,55.30
2018-08-31T07:27:33.525Z,55.30
2018-08-31T07:28:07.075Z,55.70
2018-08-31T07:28:40.637Z,54.90
2018-08-31T07:29:14.205Z,53.80
2018-08-31T07:29:47.730Z,52.50
2018-08-31T07:30:21.236Z,52.30
2018-08-31T07:30:54.741Z,51.80
2018-08-31T07:31:28.307Z,51.50
2018-08-31T07:32:01.909Z,51.50
2018-08-31T07:32:35.494Z,51.20
2018-08-31T07:33:09.043Z,51.50
2018-08-31T07:33:42.614Z,52.30
2018-08-31T07:34:16.143Z,52.40
2018-08-31T07:34:49.687Z,49.90
2018-08-31T07:35:23.259Z,49.40
2018-08-31T07:35:56.796Z,48.90
2018-08-31T07:36:30.410Z,47.60
2018-08-31T07:37:03.955Z,47.10
2018-08-31T07:37:37.497Z,46.50
2018-08-31T07:38:11.009Z,47.50